Time,TemperatureF,DewpointF,PressureIn,WindDirection,WindDirectionDegrees,WindSpeedMPH,WindSpeedGustMPH,Humidity,HourlyPrecipIn,Conditions,Clouds,dailyrainin,SoftwareType,DateUTC
2013-03-08 00:00:00,44.7,39.9,30.46,NW,315,0.0,0.0,83,0.00,,,0.00,WUHU21623XXSP,2013-03-08 05:00:00,
2013-03-08 00:01:00,44.7,39.9,30.46,NW,315,0.0,0.0,83,0.00,,,0.00,WUHU21623XXSP,2013-03-08 05:01:00,
2013-03-08 00:06:00,44.5,39.7,30.47,NW,315,0.0,0.0,83,0.00,,,0.00,WUHU21623XXSP,2013-03-08 05:06:00,
2013-03-08 00:11:00,44.3,39.5,30.47,NW,315,0.0,0.0,83,0.00,,,0.00,WUHU21623XXSP,2013-03-08 05:11:00,
2013-03-08 00:16:00,44.3,39.5,30.46,NW,315,0.0,0.0,83,0.00,,,0.00,WUHU21623XXSP,2013-03-08 05:16:00,
2013-03-08 00:21:00,44.1,39.3,30.46,NW,315,0.0,0.0,83,0.00,,,0.00,WUHU21623XXSP,2013-03-08 05:21:00,
2013-03-08 00:26:00,44.1,39.6,30.46,NW,315,0.0,0.0,84,0.00,,,0.00,WUHU21623XXSP,2013-03-08 05:26:00,
2013-03-08 00:31:00,44.0,39.5,30.46,NW,315,0.0,0.0,84,0.00,,,0.00,WUHU21623XXSP,2013-03-08 05:31:00,
2013-03-08 00:36:00,44.0,39.5,30.46,NW,315,0.0,0.0,84,0.00,,,0.00,WUHU21623XXSP,2013-03-08 05:36:00,
2013-03-08 00:41:00,44.0,39.5,30.46,NW,315,0.0,0.0,84,0.00,,,0.00,WUHU21623XXSP,2013-03-08 05:41:00,
2013-03-08 00:46:00,44.0,39.5,30.46,NW,315,0.0,0.0,84,0.00,,,0.00,WUHU21623XXSP,2013-03-08 05:46:00,
2013-03-08 00:51:00,44.0,39.5,30.46,NW,315,0.0,0.0,84,0.00,,,0.00,WUHU21623XXSP,2013-03-08 05:51:00,
2013-03-08 00:57:00,44.0,39.8,30.46,NW,315,0.0,0.0,85,0.00,,,0.00,WUHU21623XXSP,2013-03-08 05:57:00,
2013-03-08 01:02:00,44.0,39.8,30.46,NW,315,0.0,0.0,85,0.00,,,0.00,WUHU21623XXSP,2013-03-08 06:02:00,
2013-03-08 01:07:00,43.8,39.6,30.46,NW,315,0.0,0.0,85,0.00,,,0.00,WUHU21623XXSP,2013-03-08 06:07:00,
2013-03-08 01:12:00,43.6,39.4,30.46,NW,315,0.0,0.0,85,0.00,,,0.00,WUHU21623XXSP,2013-03-08 06:12:00,
2013-03-08 01:17:00,43.6,39.4,30.46,NW,315,0.0,0.0,85,0.00,,,0.00,WUHU21623XXSP,2013-03-08 06:17:00,
2013-03-08 01:22:00,43.4,39.2,30.45,NW,315,0.0,0.0,85,0.00,,,0.00,WUHU21623XXSP,2013-03-08 06:22:00,
2013-03-08 01:27:00,43.4,39.2,30.46,NW,315,0.0,0.0,85,0.00,,,0.00,WUHU21623XXSP,2013-03-08 06:27:00,
2013-03-08 01:32:00,43.2,39.0,30.46,NW,315,0.0,0.0,85,0.00,,,0.00,WUHU21623XXSP,2013-03-08 06:32:00,
2013-03-08 01:37:00,43.2,39.0,30.46,NW,315,0.0,0.0,85,0.00,,,0.00,WUHU21623XXSP,2013-03-08 06:37:00,
2013-03-08 01:42:00,43.1,38.9,30.46,NW,315,0.0,0.0,85,0.00,,,0.00,WUHU21623XXSP,2013-03-08 06:42:00,
2013-03-08 01:47:00,42.9,38.7,30.46,NW,315,0.0,0.0,85,0.00,,,0.00,WUHU21623XXSP,2013-03-08 06:47:00,
2013-03-08 01:52:00,42.9,38.7,30.46,NW,315,0.0,0.0,85,0.00,,,0.00,WUHU21623XXSP,2013-03-08 06:52:00,
2013-03-08 01:57:00,42.9,38.7,30.46,NW,315,0.0,0.0,85,0.00,,,0.00,WUHU21623XXSP,2013-03-08 06:57:00,
2013-03-08 02:02:00,42.9,38.7,30.46,NW,315,0.0,0.0,85,0.00,,,0.00,WUHU21623XXSP,2013-03-08 07:02:00,
2013-03-08 02:07:00,42.7,38.5,30.46,NW,315,0.0,0.0,85,0.00,,,0.00,WUHU21623XXSP,2013-03-08 07:07:00,
2013-03-08 02:12:00,42.7,38.8,30.45,NW,315,0.0,0.0,86,0.00,,,0.00,WUHU21623XXSP,2013-03-08 07:12:00,
2013-03-08 02:17:00,42.5,38.6,30.45,NW,315,0.0,0.0,86,0.00,,,0.00,WUHU21623XXSP,2013-03-08 07:17:00,
2013-03-08 02:22:00,42.5,38.6,30.45,NW,315,0.0,0.0,86,0.00,,,0.00,WUHU21623XXSP,2013-03-08 07:22:00,
2013-03-08 02:27:00,42.5,38.6,30.45,NW,315,0.0,0.0,86,0.00,,,0.00,WUHU21623XXSP,2013-03-08 07:27:00,
2013-03-08 02:32:00,42.5,38.6,30.45,NW,315,0.0,0.0,86,0.00,,,0.00,WUHU21623XXSP,2013-03-08 07:32:00,
2013-03-08 02:37:00,42.5,38.6,30.45,NW,315,0.0,0.0,86,0.00,,,0.00,WUHU21623XXSP,2013-03-08 07:37:00,
2013-03-08 02:42:00,42.5,38.6,30.45,NW,315,0.0,0.0,86,0.00,,,0.00,WUHU21623XXSP,2013-03-08 07:42:00,
2013-03-08 02:47:00,42.3,38.4,30.44,NW,315,0.0,0.0,86,0.00,,,0.00,WUHU21623XXSP,2013-03-08 07:47:00,
2013-03-08 02:52:00,42.3,38.4,30.44,NW,315,0.0,0.0,86,0.00,,,0.00,WUHU21623XXSP,2013-03-08 07:52:00,
2013-03-08 02:57:00,42.3,38.4,30.45,NW,315,0.0,0.0,86,0.00,,,0.00,WUHU21623XXSP,2013-03-08 07:57:00,
2013-03-08 03:02:00,42.3,38.4,30.45,NW,315,0.0,0.0,86,0.00,,,0.00,WUHU21623XXSP,2013-03-08 08:02:00,
2013-03-08 03:07:00,42.2,38.3,30.44,NW,315,0.0,0.0,86,0.00,,,0.00,WUHU21623XXSP,2013-03-08 08:07:00,
2013-03-08 03:12:00,42.3,38.7,30.45,NW,315,0.0,0.0,87,0.00,,,0.00,WUHU21623XXSP,2013-03-08 08:12:00,
2013-03-08 03:17:00,42.3,38.7,30.44,NW,315,0.0,0.0,87,0.00,,,0.00,WUHU21623XXSP,2013-03-08 08:17:00,
2013-03-08 03:22:00,42.5,38.9,30.44,NW,315,0.0,0.0,87,0.00,,,0.00,WUHU21623XXSP,2013-03-08 08:22:00,
2013-03-08 03:27:00,42.5,38.9,30.44,NW,315,0.0,0.0,87,0.00,,,0.00,WUHU21623XXSP,2013-03-08 08:27:00,
2013-03-08 03:32:00,42.5,38.9,30.44,NW,315,0.0,0.0,87,0.00,,,0.00,WUHU21623XXSP,2013-03-08 08:32:00,
2013-03-08 03:37:00,42.5,38.9,30.44,NW,315,0.0,0.0,87,0.00,,,0.00,WUHU21623XXSP,2013-03-08 08:37:00,
2013-03-08 03:42:00,42.7,39.1,30.44,NW,315,0.0,0.0,87,0.00,,,0.00,WUHU21623XXSP,2013-03-08 08:42:00,
2013-03-08 03:47:00,42.7,39.1,30.43,NW,315,0.0,0.0,87,0.00,,,0.00,WUHU21623XXSP,2013-03-08 08:47:00,
2013-03-08 03:52:00,42.9,39.3,30.44,NW,315,0.0,0.0,87,0.00,,,0.00,WUHU21623XXSP,2013-03-08 08:52:00,
2013-03-08 03:57:00,42.9,39.3,30.44,NW,315,0.0,0.0,87,0.00,,,0.00,WUHU21623XXSP,2013-03-08 08:57:00,
2013-03-08 04:02:00,42.9,39.3,30.44,NW,315,0.0,0.0,87,0.00,,,0.00,WUHU21623XXSP,2013-03-08 09:02:00,
2013-03-08 04:07:00,42.9,39.3,30.44,NW,315,0.0,0.0,87,0.00,,,0.00,WUHU21623XXSP,2013-03-08 09:07:00,
2013-03-08 04:12:00,42.9,39.6,30.44,NW,315,0.0,0.0,88,0.00,,,0.00,WUHU21623XXSP,2013-03-08 09:12:00,
2013-03-08 04:17:00,42.9,39.6,30.44,NW,315,0.0,0.0,88,0.00,,,0.00,WUHU21623XXSP,2013-03-08 09:17:00,
2013-03-08 04:22:00,42.9,39.6,30.44,NW,315,0.0,0.0,88,0.00,,,0.00,WUHU21623XXSP,2013-03-08 09:22:00,
2013-03-08 04:27:00,42.9,39.6,30.44,NW,315,0.0,0.0,88,0.00,,,0.00,WUHU21623XXSP,2013-03-08 09:27:00,
2013-03-08 04:32:00,42.9,39.6,30.44,NW,315,0.0,0.0,88,0.00,,,0.00,WUHU21623XXSP,2013-03-08 09:32:00,
2013-03-08 04:37:00,42.7,39.4,30.45,NW,315,0.0,0.0,88,0.00,,,0.00,WUHU21623XXSP,2013-03-08 09:37:00,
2013-03-08 04:42:00,42.7,39.4,30.44,NW,315,0.0,0.0,88,0.00,,,0.00,WUHU21623XXSP,2013-03-08 09:42:00,
2013-03-08 04:47:00,42.5,39.2,30.44,NW,315,0.0,0.0,88,0.00,,,0.00,WUHU21623XXSP,2013-03-08 09:47:00,
2013-03-08 04:52:00,42.5,39.2,30.45,NW,315,0.0,0.0,88,0.00,,,0.00,WUHU21623XXSP,2013-03-08 09:52:00,
2013-03-08 04:57:00,42.5,39.2,30.45,NW,315,0.0,0.0,88,0.00,,,0.00,WUHU21623XXSP,2013-03-08 09:57:00,
2013-03-08 05:02:00,42.5,39.2,30.45,NW,315,0.0,0.0,88,0.00,,,0.00,WUHU21623XXSP,2013-03-08 10:02:00,
2013-03-08 05:07:00,42.3,39.0,30.45,NW,315,0.0,0.0,88,0.00,,,0.00,WUHU21623XXSP,2013-03-08 10:07:00,
2013-03-08 05:12:00,42.2,38.9,30.45,NW,315,0.0,0.0,88,0.00,,,0.00,WUHU21623XXSP,2013-03-08 10:12:00,
2013-03-08 05:17:00,42.0,38.7,30.45,NW,315,0.0,0.0,88,0.00,,,0.00,WUHU21623XXSP,2013-03-08 10:17:00,
2013-03-08 05:23:00,42.0,39.0,30.45,NW,315,0.0,0.0,89,0.00,,,0.00,WUHU21623XXSP,2013-03-08 10:23:00,
2013-03-08 05:28:00,42.0,39.0,30.45,NW,315,0.0,0.0,89,0.00,,,0.00,WUHU21623XXSP,2013-03-08 10:28:00,
2013-03-08 05:33:00,41.6,38.6,30.45,NW,315,0.0,0.0,89,0.00,,,0.00,WUHU21623XXSP,2013-03-08 10:33:00,
2013-03-08 05:38:00,41.6,38.6,30.45,NW,315,0.0,0.0,89,0.00,,,0.00,WUHU21623XXSP,2013-03-08 10:38:00,
2013-03-08 05:43:00,41.6,38.6,30.45,NW,315,0.0,0.0,89,0.00,,,0.00,WUHU21623XXSP,2013-03-08 10:43:00,
2013-03-08 05:48:00,41.6,38.6,30.45,NW,315,0.0,0.0,89,0.00,,,0.00,WUHU21623XXSP,2013-03-08 10:48:00,
2013-03-08 05:53:00,41.4,38.4,30.45,NW,315,0.0,0.0,89,0.00,,,0.00,WUHU21623XXSP,2013-03-08 10:53:00,
2013-03-08 05:58:00,41.4,38.4,30.45,NW,315,0.0,0.0,89,0.00,,,0.00,WUHU21623XXSP,2013-03-08 10:58:00,
2013-03-08 06:03:00,41.4,38.4,30.45,NW,315,0.0,0.0,89,0.00,,,0.00,WUHU21623XXSP,2013-03-08 11:03:00,
2013-03-08 06:08:00,41.1,38.1,30.45,NW,315,0.0,0.0,89,0.00,,,0.00,WUHU21623XXSP,2013-03-08 11:08:00,
2013-03-08 06:13:00,41.1,38.1,30.45,NW,315,0.0,0.0,89,0.00,,,0.00,WUHU21623XXSP,2013-03-08 11:13:00,
2013-03-08 06:18:00,41.1,38.1,30.45,NW,315,0.0,0.0,89,0.00,,,0.00,WUHU21623XXSP,2013-03-08 11:18:00,
2013-03-08 06:23:00,40.9,37.9,30.45,NW,315,0.0,0.0,89,0.00,,,0.00,WUHU21623XXSP,2013-03-08 11:23:00,
2013-03-08 06:28:00,40.9,37.9,30.45,NW,315,0.0,0.0,89,0.00,,,0.00,WUHU21623XXSP,2013-03-08 11:28:00,
2013-03-08 06:33:00,40.9,37.9,30.46,NW,315,0.0,0.0,89,0.00,,,0.00,WUHU21623XXSP,2013-03-08 11:33:00,
2013-03-08 06:38:00,40.7,37.7,30.46,NW,315,0.0,0.0,89,0.00,,,0.00,WUHU21623XXSP,2013-03-08 11:38:00,
2013-03-08 06:43:00,40.7,37.7,30.46,NW,315,0.0,0.0,89,0.00,,,0.00,WUHU21623XXSP,2013-03-08 11:43:00,
2013-03-08 06:48:00,40.7,37.7,30.46,NW,315,0.0,0.0,89,0.00,,,0.00,WUHU21623XXSP,2013-03-08 11:48:00,
2013-03-08 06:53:00,40.5,37.5,30.46,NW,315,0.0,0.0,89,0.00,,,0.00,WUHU21623XXSP,2013-03-08 11:53:00,
2013-03-08 06:58:00,40.5,37.5,30.46,NW,315,0.0,0.0,89,0.00,,,0.00,WUHU21623XXSP,2013-03-08 11:58:00,
2013-03-08 07:03:00,40.5,37.5,30.46,NW,315,0.0,0.0,89,0.00,,,0.00,WUHU21623XXSP,2013-03-08 12:03:00,
2013-03-08 07:08:00,40.5,37.5,30.46,NW,315,0.0,0.0,89,0.00,,,0.00,WUHU21623XXSP,2013-03-08 12:08:00,
2013-03-08 07:13:00,40.7,37.7,30.46,NNW,337,0.0,0.0,89,0.00,,,0.00,WUHU21623XXSP,2013-03-08 12:13:00,
2013-03-08 07:18:00,41.1,38.1,30.47,NNE,22,0.0,0.0,89,0.00,,,0.00,WUHU21623XXSP,2013-03-08 12:18:00,
2013-03-08 07:23:00,42.2,39.4,30.46,NNE,22,0.0,0.0,90,0.00,,,0.00,WUHU21623XXSP,2013-03-08 12:23:00,
2013-03-08 07:28:00,43.6,40.8,30.47,NNE,22,0.0,0.0,90,0.00,,,0.00,WUHU21623XXSP,2013-03-08 12:28:00,
2013-03-08 07:33:00,45.6,42.8,30.47,NNE,22,0.0,0.0,90,0.00,,,0.00,WUHU21623XXSP,2013-03-08 12:33:00,
2013-03-08 07:38:00,47.9,44.8,30.47,NNE,22,0.0,0.0,89,0.00,,,0.00,WUHU21623XXSP,2013-03-08 12:38:00,
2013-03-08 07:43:00,50.3,46.9,30.47,NNE,22,0.0,0.0,88,0.00,,,0.00,WUHU21623XXSP,2013-03-08 12:43:00,
2013-03-08 07:48:00,52.8,48.7,30.47,NNE,22,0.0,0.0,86,0.00,,,0.00,WUHU21623XXSP,2013-03-08 12:48:00,
2013-03-08 07:53:00,54.9,49.9,30.47,NNE,22,0.0,0.0,83,0.00,,,0.00,WUHU21623XXSP,2013-03-08 12:53:00,
2013-03-08 07:58:00,56.4,50.4,30.47,NNE,22,0.0,0.0,80,0.08,,,0.08,WUHU21623XXSP,2013-03-08 12:58:00,
2013-03-08 08:03:00,56.9,49.8,30.48,NNE,22,0.0,0.0,77,0.08,,,0.08,WUHU21623XXSP,2013-03-08 13:03:00,
2013-03-08 08:08:00,57.1,48.6,30.48,ENE,67,0.0,0.0,73,0.08,,,0.08,WUHU21623XXSP,2013-03-08 13:08:00,
2013-03-08 08:13:00,56.7,47.5,30.48,ENE,67,0.0,0.0,71,0.08,,,0.08,WUHU21623XXSP,2013-03-08 13:13:00,
2013-03-08 08:18:00,56.4,47.2,30.48,ENE,67,0.0,0.0,71,0.08,,,0.08,WUHU21623XXSP,2013-03-08 13:18:00,
2013-03-08 08:23:00,56.0,46.5,30.48,ENE,67,0.0,0.0,70,0.08,,,0.08,WUHU21623XXSP,2013-03-08 13:23:00,
2013-03-08 08:28:00,55.8,46.3,30.48,ENE,67,0.0,0.0,70,0.08,,,0.08,WUHU21623XXSP,2013-03-08 13:28:00,
2013-03-08 08:34:00,55.5,46.0,30.48,ENE,67,0.0,0.0,70,0.08,,,0.08,WUHU21623XXSP,2013-03-08 13:34:00,
2013-03-08 08:39:00,55.3,45.4,30.48,ENE,67,0.0,0.0,69,0.08,,,0.08,WUHU21623XXSP,2013-03-08 13:39:00,
2013-03-08 08:44:00,55.7,45.8,30.49,ENE,67,0.0,0.0,69,0.08,,,0.08,WUHU21623XXSP,2013-03-08 13:44:00,
2013-03-08 08:49:00,56.0,46.1,30.49,ENE,67,0.0,0.0,69,0.08,,,0.08,WUHU21623XXSP,2013-03-08 13:49:00,
2013-03-08 08:54:00,56.4,46.1,30.49,ENE,67,0.0,0.0,68,0.08,,,0.08,WUHU21623XXSP,2013-03-08 13:54:00,
2013-03-08 08:59:00,56.9,46.6,30.49,East,90,0.0,0.0,68,0.00,,,0.08,WUHU21623XXSP,2013-03-08 13:59:00,
2013-03-08 09:04:00,57.3,46.6,30.49,ENE,67,0.0,0.0,67,0.00,,,0.08,WUHU21623XXSP,2013-03-08 14:04:00,
2013-03-08 09:09:00,57.6,46.9,30.49,SE,135,0.0,0.0,67,0.00,,,0.08,WUHU21623XXSP,2013-03-08 14:09:00,
2013-03-08 09:14:00,57.8,46.7,30.49,SE,135,0.0,0.0,66,0.00,,,0.08,WUHU21623XXSP,2013-03-08 14:14:00,
2013-03-08 09:19:00,57.8,46.2,30.50,ESE,112,0.0,0.0,65,0.00,,,0.08,WUHU21623XXSP,2013-03-08 14:19:00,
2013-03-08 09:24:00,58.4,46.4,30.50,ENE,67,0.0,0.0,64,0.00,,,0.08,WUHU21623XXSP,2013-03-08 14:24:00,
2013-03-08 09:29:00,58.7,46.3,30.49,SE,135,0.0,0.0,63,0.00,,,0.08,WUHU21623XXSP,2013-03-08 14:29:00,
2013-03-08 09:34:00,59.1,46.7,30.50,ESE,112,0.0,0.0,63,0.00,,,0.08,WUHU21623XXSP,2013-03-08 14:34:00,
2013-03-08 09:39:00,59.1,46.7,30.49,ESE,112,0.0,0.0,63,0.00,,,0.08,WUHU21623XXSP,2013-03-08 14:39:00,
2013-03-08 09:44:00,59.4,46.9,30.49,ENE,67,0.0,0.0,63,0.00,,,0.08,WUHU21623XXSP,2013-03-08 14:44:00,
2013-03-08 09:49:00,59.6,47.1,30.48,SE,135,0.0,0.0,63,0.00,,,0.08,WUHU21623XXSP,2013-03-08 14:49:00,
2013-03-08 09:54:00,60.3,47.4,30.49,ESE,112,0.0,0.0,62,0.00,,,0.08,WUHU21623XXSP,2013-03-08 14:54:00,
2013-03-08 09:59:00,60.5,47.1,30.49,SE,135,0.0,0.0,61,0.00,,,0.08,WUHU21623XXSP,2013-03-08 14:59:00,
2013-03-08 10:04:00,60.9,47.1,30.49,ESE,112,0.0,0.0,60,0.00,,,0.08,WUHU21623XXSP,2013-03-08 15:04:00,
2013-03-08 10:09:00,61.4,47.1,30.49,ESE,112,0.0,0.0,59,0.00,,,0.08,WUHU21623XXSP,2013-03-08 15:09:00,
2013-03-08 10:14:00,61.4,46.1,30.48,SE,135,0.0,0.0,57,0.00,,,0.08,WUHU21623XXSP,2013-03-08 15:14:00,
2013-03-08 10:19:00,62.1,46.8,30.49,East,90,0.0,0.0,57,0.00,,,0.08,WUHU21623XXSP,2013-03-08 15:19:00,
2013-03-08 10:24:00,63.0,47.2,30.48,ESE,112,0.0,0.0,56,0.00,,,0.08,WUHU21623XXSP,2013-03-08 15:24:00,
2013-03-08 10:29:00,63.2,46.9,30.48,SE,135,0.0,0.0,55,0.00,,,0.08,WUHU21623XXSP,2013-03-08 15:29:00,
2013-03-08 10:34:00,63.2,45.3,30.48,ENE,67,0.0,0.0,52,0.00,,,0.08,WUHU21623XXSP,2013-03-08 15:34:00,
2013-03-08 10:39:00,63.6,46.2,30.48,ESE,112,0.0,0.0,53,0.00,,,0.08,WUHU21623XXSP,2013-03-08 15:39:00,
2013-03-08 10:44:00,63.9,46.0,30.48,ESE,112,0.0,0.0,52,0.00,,,0.08,WUHU21623XXSP,2013-03-08 15:44:00,
2013-03-08 10:49:00,64.1,46.2,30.48,ESE,112,0.0,0.0,52,0.00,,,0.08,WUHU21623XXSP,2013-03-08 15:49:00,
2013-03-08 10:54:00,65.0,46.5,30.48,ESE,112,0.0,0.0,51,0.00,,,0.08,WUHU21623XXSP,2013-03-08 15:54:00,
2013-03-08 10:59:00,65.6,46.5,30.47,South,180,0.0,0.0,50,0.00,,,0.08,WUHU21623XXSP,2013-03-08 15:59:00,
2013-03-08 11:04:00,66.1,47.0,30.47,South,180,0.0,0.0,50,0.00,,,0.08,WUHU21623XXSP,2013-03-08 16:04:00,
2013-03-08 11:09:00,67.2,46.9,30.48,ENE,67,0.0,0.0,48,0.00,,,0.08,WUHU21623XXSP,2013-03-08 16:09:00,
2013-03-08 11:14:00,67.0,44.9,30.48,ENE,67,0.0,0.0,45,0.00,,,0.08,WUHU21623XXSP,2013-03-08 16:14:00,
2013-03-08 11:19:00,66.8,45.3,30.48,SE,135,0.0,0.0,46,0.00,,,0.08,WUHU21623XXSP,2013-03-08 16:19:00,
2013-03-08 11:24:00,67.5,45.4,30.48,East,90,0.0,0.0,45,0.00,,,0.08,WUHU21623XXSP,2013-03-08 16:24:00,
2013-03-08 11:29:00,68.1,45.9,30.48,SE,135,0.0,0.0,45,0.00,,,0.08,WUHU21623XXSP,2013-03-08 16:29:00,
2013-03-08 11:34:00,68.1,44.7,30.47,ENE,67,0.0,0.0,43,0.00,,,0.08,WUHU21623XXSP,2013-03-08 16:34:00,
2013-03-08 11:39:00,68.1,44.7,30.47,ESE,112,0.0,0.0,43,0.00,,,0.08,WUHU21623XXSP,2013-03-08 16:39:00,
2013-03-08 11:44:00,68.6,45.8,30.47,SE,135,0.0,0.0,44,0.00,,,0.08,WUHU21623XXSP,2013-03-08 16:44:00,
2013-03-08 11:50:00,69.0,45.5,30.47,SSE,157,0.0,0.0,43,0.00,,,0.08,WUHU21623XXSP,2013-03-08 16:50:00,
2013-03-08 11:55:00,69.2,45.0,30.46,ENE,67,0.0,0.0,42,0.00,,,0.08,WUHU21623XXSP,2013-03-08 16:55:00,
2013-03-08 12:00:00,69.3,44.5,30.46,SE,135,0.0,0.0,41,0.00,,,0.08,WUHU21623XXSP,2013-03-08 17:00:00,
2013-03-08 12:05:00,69.7,44.8,30.46,East,90,0.0,0.0,41,0.00,,,0.08,WUHU21623XXSP,2013-03-08 17:05:00,
2013-03-08 12:10:00,69.9,44.4,30.46,NNW,337,0.0,0.0,40,0.00,,,0.08,WUHU21623XXSP,2013-03-08 17:10:00,
2013-03-08 12:15:00,70.2,44.6,30.46,North,0,0.0,0.0,40,0.00,,,0.08,WUHU21623XXSP,2013-03-08 17:15:00,
2013-03-08 12:20:00,70.4,45.5,30.46,NNW,337,0.0,0.0,41,0.00,,,0.08,WUHU21623XXSP,2013-03-08 17:20:00,
2013-03-08 12:25:00,71.0,44.7,30.45,NNE,22,0.0,0.0,39,0.00,,,0.08,WUHU21623XXSP,2013-03-08 17:25:00,
2013-03-08 12:30:00,71.0,44.7,30.45,NNE,22,0.0,0.0,39,0.00,,,0.08,WUHU21623XXSP,2013-03-08 17:30:00,
2013-03-08 12:35:00,71.0,44.7,30.45,NNW,337,0.0,0.0,39,0.00,,,0.08,WUHU21623XXSP,2013-03-08 17:35:00,
2013-03-08 12:40:00,71.1,43.3,30.45,North,0,0.0,0.0,37,0.00,,,0.08,WUHU21623XXSP,2013-03-08 17:40:00,
2013-03-08 12:45:00,71.1,44.1,30.45,WNW,292,0.0,0.0,38,0.00,,,0.08,WUHU21623XXSP,2013-03-08 17:45:00,
2013-03-08 12:50:00,71.1,44.1,30.44,NW,315,0.0,0.0,38,0.00,,,0.08,WUHU21623XXSP,2013-03-08 17:50:00,
2013-03-08 12:55:00,71.0,44.0,30.44,NW,315,0.0,0.0,38,0.00,,,0.08,WUHU21623XXSP,2013-03-08 17:55:00,
2013-03-08 13:00:00,71.0,44.7,30.44,NNE,22,0.0,0.0,39,0.00,,,0.08,WUHU21623XXSP,2013-03-08 18:00:00,
2013-03-08 13:05:00,71.1,44.8,30.45,WNW,292,0.0,0.0,39,0.00,,,0.08,WUHU21623XXSP,2013-03-08 18:05:00,
2013-03-08 13:10:00,71.0,44.7,30.43,West,270,0.0,0.0,39,0.00,,,0.08,WUHU21623XXSP,2013-03-08 18:10:00,
2013-03-08 13:15:00,71.1,45.4,30.43,NW,315,0.0,0.0,40,0.00,,,0.08,WUHU21623XXSP,2013-03-08 18:15:00,
2013-03-08 13:20:00,71.3,44.2,30.43,North,0,0.0,0.0,38,0.00,,,0.08,WUHU21623XXSP,2013-03-08 18:20:00,
2013-03-08 13:25:00,71.1,44.8,30.43,WNW,292,0.0,0.0,39,0.00,,,0.08,WUHU21623XXSP,2013-03-08 18:25:00,
2013-03-08 13:30:00,70.6,44.3,30.42,NNW,337,0.0,0.0,39,0.00,,,0.08,WUHU21623XXSP,2013-03-08 18:30:00,
2013-03-08 13:35:00,70.8,43.8,30.42,West,270,0.0,0.0,38,0.00,,,0.08,WUHU21623XXSP,2013-03-08 18:35:00,
2013-03-08 13:40:00,70.8,43.8,30.42,WNW,292,0.0,0.0,38,0.00,,,0.08,WUHU21623XXSP,2013-03-08 18:40:00,
2013-03-08 13:45:00,70.8,43.8,30.42,WNW,292,0.0,0.0,38,0.00,,,0.08,WUHU21623XXSP,2013-03-08 18:45:00,
2013-03-08 13:50:00,71.0,44.0,30.42,NW,315,0.0,0.0,38,0.00,,,0.08,WUHU21623XXSP,2013-03-08 18:50:00,
2013-03-08 13:55:00,71.3,44.9,30.42,North,0,0.0,0.0,39,0.00,,,0.08,WUHU21623XXSP,2013-03-08 18:55:00,
2013-03-08 14:00:00,71.5,45.1,30.42,WNW,292,0.0,0.0,39,0.00,,,0.08,WUHU21623XXSP,2013-03-08 19:00:00,
2013-03-08 14:05:00,71.5,45.1,30.41,NNE,22,0.0,0.0,39,0.00,,,0.08,WUHU21623XXSP,2013-03-08 19:05:00,
2013-03-08 14:10:00,71.0,44.7,30.41,NNE,22,0.0,0.0,39,0.00,,,0.08,WUHU21623XXSP,2013-03-08 19:10:00,
2013-03-08 14:15:00,71.0,44.7,30.41,NW,315,0.0,0.0,39,0.00,,,0.08,WUHU21623XXSP,2013-03-08 19:15:00,
2013-03-08 14:20:00,70.8,45.2,30.41,WNW,292,0.0,0.0,40,0.00,,,0.08,WUHU21623XXSP,2013-03-08 19:20:00,
2013-03-08 14:25:00,70.6,45.0,30.40,NNW,337,0.0,0.0,40,0.00,,,0.08,WUHU21623XXSP,2013-03-08 19:25:00,
2013-03-08 14:30:00,70.8,44.5,30.40,NW,315,0.0,0.0,39,0.00,,,0.08,WUHU21623XXSP,2013-03-08 19:30:00,
2013-03-08 14:35:00,71.0,44.7,30.40,NW,315,0.0,0.0,39,0.00,,,0.08,WUHU21623XXSP,2013-03-08 19:35:00,
2013-03-08 14:40:00,71.1,44.1,30.40,NNE,22,0.0,0.0,38,0.00,,,0.08,WUHU21623XXSP,2013-03-08 19:40:00,
2013-03-08 14:45:00,71.0,44.7,30.40,NNE,22,0.0,0.0,39,0.00,,,0.08,WUHU21623XXSP,2013-03-08 19:45:00,
2013-03-08 14:50:00,71.0,44.7,30.40,WNW,292,0.0,0.0,39,0.00,,,0.08,WUHU21623XXSP,2013-03-08 19:50:00,
2013-03-08 14:55:00,71.1,44.1,30.40,West,270,0.0,0.0,38,0.00,,,0.08,WUHU21623XXSP,2013-03-08 19:55:00,
2013-03-08 15:00:00,70.8,44.5,30.40,NNW,337,0.0,0.0,39,0.00,,,0.08,WUHU21623XXSP,2013-03-08 20:00:00,
2013-03-08 15:05:00,70.8,44.5,30.40,NNW,337,0.0,0.0,39,0.00,,,0.08,WUHU21623XXSP,2013-03-08 20:05:00,
2013-03-08 15:10:00,70.4,44.1,30.39,NNW,337,0.0,0.0,39,0.00,,,0.08,WUHU21623XXSP,2013-03-08 20:10:00,
2013-03-08 15:15:00,70.4,44.1,30.40,NNE,22,0.0,0.0,39,0.00,,,0.08,WUHU21623XXSP,2013-03-08 20:15:00,
2013-03-08 15:20:00,70.4,44.1,30.40,WNW,292,0.0,0.0,39,0.00,,,0.08,WUHU21623XXSP,2013-03-08 20:20:00,
2013-03-08 15:25:00,70.8,44.5,30.39,NNW,337,0.0,0.0,39,0.00,,,0.08,WUHU21623XXSP,2013-03-08 20:25:00,
2013-03-08 15:30:00,70.2,43.3,30.39,North,0,0.0,0.0,38,0.00,,,0.08,WUHU21623XXSP,2013-03-08 20:30:00,
2013-03-08 15:35:00,69.9,43.0,30.39,West,270,0.0,0.0,38,0.00,,,0.08,WUHU21623XXSP,2013-03-08 20:35:00,
2013-03-08 15:40:00,69.9,43.7,30.39,NNE,22,0.0,0.0,39,0.00,,,0.08,WUHU21623XXSP,2013-03-08 20:40:00,
2013-03-08 15:46:00,69.7,43.5,30.39,NNW,337,0.0,0.0,39,0.00,,,0.08,WUHU21623XXSP,2013-03-08 20:46:00,
2013-03-08 15:51:00,69.5,43.3,30.39,North,0,0.0,0.0,39,0.00,,,0.08,WUHU21623XXSP,2013-03-08 20:51:00,
2013-03-08 15:56:00,69.5,43.3,30.39,NW,315,0.0,0.0,39,0.00,,,0.08,WUHU21623XXSP,2013-03-08 20:56:00,
2013-03-08 16:01:00,69.5,43.3,30.39,West,270,0.0,0.0,39,0.00,,,0.08,WUHU21623XXSP,2013-03-08 21:01:00,
2013-03-08 16:06:00,69.3,43.8,30.39,WNW,292,0.0,0.0,40,0.00,,,0.08,WUHU21623XXSP,2013-03-08 21:06:00,
2013-03-08 16:11:00,69.2,43.7,30.39,WNW,292,0.0,0.0,40,0.00,,,0.08,WUHU21623XXSP,2013-03-08 21:11:00,
2013-03-08 16:16:00,68.6,43.2,30.39,NNW,337,0.0,0.0,40,0.00,,,0.08,WUHU21623XXSP,2013-03-08 21:16:00,
2013-03-08 16:21:00,68.6,43.8,30.39,NNW,337,0.0,0.0,41,0.00,,,0.08,WUHU21623XXSP,2013-03-08 21:21:00,
2013-03-08 16:26:00,68.6,43.8,30.39,WNW,292,0.0,0.0,41,0.00,,,0.08,WUHU21623XXSP,2013-03-08 21:26:00,
2013-03-08 16:31:00,69.0,44.2,30.39,NW,315,0.0,0.0,41,0.00,,,0.08,WUHU21623XXSP,2013-03-08 21:31:00,
2013-03-08 16:36:00,68.8,44.7,30.39,WNW,292,0.0,0.0,42,0.00,,,0.08,WUHU21623XXSP,2013-03-08 21:36:00,
2013-03-08 16:41:00,68.4,44.9,30.39,West,270,0.0,0.0,43,0.00,,,0.08,WUHU21623XXSP,2013-03-08 21:41:00,
2013-03-08 16:46:00,68.3,45.5,30.39,WNW,292,0.0,0.0,44,0.00,,,0.08,WUHU21623XXSP,2013-03-08 21:46:00,
2013-03-08 16:51:00,68.1,45.3,30.39,WNW,292,0.0,0.0,44,0.00,,,0.08,WUHU21623XXSP,2013-03-08 21:51:00,
2013-03-08 16:56:00,67.9,45.7,30.39,WNW,292,0.0,0.0,45,0.00,,,0.08,WUHU21623XXSP,2013-03-08 21:56:00,
2013-03-08 17:01:00,67.5,46.0,30.40,WNW,292,0.0,0.0,46,0.00,,,0.08,WUHU21623XXSP,2013-03-08 22:01:00,
2013-03-08 17:06:00,67.4,45.9,30.39,WSW,247,0.0,0.0,46,0.00,,,0.08,WUHU21623XXSP,2013-03-08 22:06:00,
2013-03-08 17:11:00,67.2,46.3,30.40,WNW,292,0.0,0.0,47,0.00,,,0.08,WUHU21623XXSP,2013-03-08 22:11:00,
2013-03-08 17:16:00,66.6,45.7,30.40,NW,315,0.0,0.0,47,0.00,,,0.08,WUHU21623XXSP,2013-03-08 22:16:00,
2013-03-08 17:21:00,66.1,45.3,30.40,WNW,292,0.0,0.0,47,0.00,,,0.08,WUHU21623XXSP,2013-03-08 22:21:00,
2013-03-08 17:26:00,65.9,45.7,30.40,WNW,292,0.0,0.0,48,0.00,,,0.08,WUHU21623XXSP,2013-03-08 22:26:00,
2013-03-08 17:31:00,65.7,46.0,30.40,NNW,337,0.0,0.0,49,0.00,,,0.08,WUHU21623XXSP,2013-03-08 22:31:00,
2013-03-08 17:36:00,65.2,46.1,30.40,WNW,292,0.0,0.0,50,0.00,,,0.08,WUHU21623XXSP,2013-03-08 22:36:00,
2013-03-08 17:41:00,64.8,45.8,30.40,NW,315,0.0,0.0,50,0.00,,,0.08,WUHU21623XXSP,2013-03-08 22:41:00,
2013-03-08 17:46:00,64.5,46.0,30.40,NW,315,0.0,0.0,51,0.00,,,0.08,WUHU21623XXSP,2013-03-08 22:46:00,
2013-03-08 17:51:00,64.1,45.6,30.40,NW,315,0.0,0.0,51,0.00,,,0.08,WUHU21623XXSP,2013-03-08 22:51:00,
2013-03-08 17:56:00,63.8,45.9,30.40,NW,315,0.0,0.0,52,0.00,,,0.08,WUHU21623XXSP,2013-03-08 22:56:00,
2013-03-08 18:01:00,63.2,45.9,30.40,WNW,292,0.0,0.0,53,0.00,,,0.08,WUHU21623XXSP,2013-03-08 23:01:00,
2013-03-08 18:06:00,62.7,45.4,30.40,NW,315,0.0,0.0,53,0.00,,,0.08,WUHU21623XXSP,2013-03-08 23:06:00,
2013-03-08 18:11:00,62.1,45.3,30.41,WNW,292,0.0,0.0,54,0.00,,,0.08,WUHU21623XXSP,2013-03-08 23:11:00,
2013-03-08 18:16:00,61.8,45.1,30.41,WNW,292,0.0,0.0,54,0.00,,,0.08,WUHU21623XXSP,2013-03-08 23:16:00,
2013-03-08 18:21:00,61.4,45.7,30.41,NNW,337,0.0,0.0,56,0.00,,,0.08,WUHU21623XXSP,2013-03-08 23:21:00,
2013-03-08 18:26:00,60.9,45.2,30.41,WNW,292,0.0,0.0,56,0.00,,,0.08,WUHU21623XXSP,2013-03-08 23:26:00,
2013-03-08 18:31:00,60.5,45.3,30.41,NNW,337,0.0,0.0,57,0.00,,,0.08,WUHU21623XXSP,2013-03-08 23:31:00,
2013-03-08 18:36:00,60.2,45.5,30.41,NW,315,0.0,0.0,58,0.00,,,0.08,WUHU21623XXSP,2013-03-08 23:36:00,
2013-03-08 18:41:00,59.6,45.4,30.41,NW,315,0.0,0.0,59,0.00,,,0.08,WUHU21623XXSP,2013-03-08 23:41:00,
2013-03-08 18:46:00,59.6,45.8,30.42,WNW,292,0.0,0.0,60,0.00,,,0.08,WUHU21623XXSP,2013-03-08 23:46:00,
2013-03-08 18:51:00,59.3,45.5,30.41,NNW,337,0.0,0.0,60,0.00,,,0.08,WUHU21623XXSP,2013-03-08 23:51:00,
2013-03-08 18:56:00,58.9,45.6,30.42,NW,315,0.0,0.0,61,0.00,,,0.08,WUHU21623XXSP,2013-03-08 23:56:00,
2013-03-08 19:01:00,58.7,45.8,30.42,WNW,292,0.0,0.0,62,0.00,,,0.08,WUHU21623XXSP,2013-03-09 00:01:00,
2013-03-08 19:06:00,58.5,45.7,30.42,WNW,292,0.0,0.0,62,0.00,,,0.08,WUHU21623XXSP,2013-03-09 00:06:00,
2013-03-08 19:11:00,58.2,45.8,30.42,WNW,292,0.0,0.0,63,0.00,,,0.08,WUHU21623XXSP,2013-03-09 00:11:00,
2013-03-08 19:16:00,57.8,45.8,30.42,WNW,292,0.0,0.0,64,0.00,,,0.08,WUHU21623XXSP,2013-03-09 00:16:00,
2013-03-08 19:21:00,57.8,45.8,30.42,NW,315,0.0,0.0,64,0.00,,,0.08,WUHU21623XXSP,2013-03-09 00:21:00,
2013-03-08 19:27:00,57.8,46.2,30.42,WNW,292,0.0,0.0,65,0.00,,,0.08,WUHU21623XXSP,2013-03-09 00:27:00,
2013-03-08 19:32:00,57.6,46.1,30.42,NW,315,0.0,0.0,65,0.00,,,0.08,WUHU21623XXSP,2013-03-09 00:32:00,
2013-03-08 19:37:00,57.5,46.4,30.42,NW,315,0.0,0.0,66,0.00,,,0.08,WUHU21623XXSP,2013-03-09 00:37:00,
2013-03-08 19:42:00,57.3,46.2,30.42,NW,315,0.0,0.0,66,0.00,,,0.08,WUHU21623XXSP,2013-03-09 00:42:00,
2013-03-08 19:47:00,57.1,46.4,30.42,NW,315,0.0,0.0,67,0.00,,,0.08,WUHU21623XXSP,2013-03-09 00:47:00,
2013-03-08 19:52:00,56.9,46.2,30.42,WNW,292,0.0,0.0,67,0.00,,,0.08,WUHU21623XXSP,2013-03-09 00:52:00,
2013-03-08 19:57:00,56.7,46.0,30.42,WNW,292,0.0,0.0,67,0.00,,,0.08,WUHU21623XXSP,2013-03-09 00:57:00,
2013-03-08 20:02:00,56.6,46.3,30.43,WNW,292,0.0,0.0,68,0.00,,,0.08,WUHU21623XXSP,2013-03-09 01:02:00,
2013-03-08 20:07:00,56.4,46.1,30.43,WNW,292,0.0,0.0,68,0.00,,,0.08,WUHU21623XXSP,2013-03-09 01:07:00,
2013-03-08 20:12:00,56.0,45.7,30.43,WNW,292,0.0,0.0,68,0.00,,,0.08,WUHU21623XXSP,2013-03-09 01:12:00,
2013-03-08 20:17:00,56.0,46.1,30.43,WNW,292,0.0,0.0,69,0.00,,,0.08,WUHU21623XXSP,2013-03-09 01:17:00,
2013-03-08 20:22:00,55.8,45.9,30.43,WNW,292,0.0,0.0,69,0.00,,,0.08,WUHU21623XXSP,2013-03-09 01:22:00,
2013-03-08 20:27:00,55.5,45.6,30.43,WNW,292,0.0,0.0,69,0.00,,,0.08,WUHU21623XXSP,2013-03-09 01:27:00,
2013-03-08 20:32:00,55.3,45.8,30.43,WNW,292,0.0,0.0,70,0.00,,,0.08,WUHU21623XXSP,2013-03-09 01:32:00,
2013-03-08 20:37:00,55.1,45.6,30.43,WNW,292,0.0,0.0,70,0.00,,,0.08,WUHU21623XXSP,2013-03-09 01:37:00,
2013-03-08 20:42:00,54.9,45.8,30.43,WNW,292,0.0,0.0,71,0.00,,,0.08,WUHU21623XXSP,2013-03-09 01:42:00,
2013-03-08 20:47:00,54.6,45.5,30.43,WNW,292,0.0,0.0,71,0.00,,,0.08,WUHU21623XXSP,2013-03-09 01:47:00,
2013-03-08 20:52:00,54.2,45.1,30.43,WNW,292,0.0,0.0,71,0.00,,,0.08,WUHU21623XXSP,2013-03-09 01:52:00,
2013-03-08 20:57:00,54.0,45.3,30.43,WNW,292,0.0,0.0,72,0.00,,,0.08,WUHU21623XXSP,2013-03-09 01:57:00,
2013-03-08 21:02:00,53.7,45.0,30.43,WNW,292,0.0,0.0,72,0.00,,,0.08,WUHU21623XXSP,2013-03-09 02:02:00,
2013-03-08 21:07:00,53.5,45.2,30.43,WNW,292,0.0,0.0,73,0.00,,,0.08,WUHU21623XXSP,2013-03-09 02:07:00,
2013-03-08 21:12:00,53.3,45.0,30.44,WNW,292,0.0,0.0,73,0.00,,,0.08,WUHU21623XXSP,2013-03-09 02:12:00,
2013-03-08 21:17:00,53.1,45.1,30.44,WNW,292,0.0,0.0,74,0.00,,,0.08,WUHU21623XXSP,2013-03-09 02:17:00,
2013-03-08 21:22:00,53.0,45.4,30.44,WNW,292,0.0,0.0,75,0.00,,,0.08,WUHU21623XXSP,2013-03-09 02:22:00,
2013-03-08 21:27:00,52.8,45.2,30.44,WNW,292,0.0,0.0,75,0.00,,,0.08,WUHU21623XXSP,2013-03-09 02:27:00,
2013-03-08 21:32:00,52.4,45.1,30.44,WNW,292,0.0,0.0,76,0.00,,,0.08,WUHU21623XXSP,2013-03-09 02:32:00,
2013-03-08 21:37:00,52.2,44.9,30.44,WNW,292,0.0,0.0,76,0.00,,,0.08,WUHU21623XXSP,2013-03-09 02:37:00,
2013-03-08 21:42:00,52.2,44.9,30.44,WNW,292,0.0,0.0,76,0.00,,,0.08,WUHU21623XXSP,2013-03-09 02:42:00,
2013-03-08 21:47:00,51.9,44.6,30.44,WNW,292,0.0,0.0,76,0.00,,,0.08,WUHU21623XXSP,2013-03-09 02:47:00,
2013-03-08 21:52:00,51.7,44.8,30.44,WNW,292,0.0,0.0,77,0.00,,,0.08,WUHU21623XXSP,2013-03-09 02:52:00,
2013-03-08 21:57:00,51.5,44.6,30.44,WNW,292,0.0,0.0,77,0.00,,,0.08,WUHU21623XXSP,2013-03-09 02:57:00,
2013-03-08 22:02:00,51.5,44.9,30.44,WNW,292,0.0,0.0,78,0.00,,,0.08,WUHU21623XXSP,2013-03-09 03:02:00,
2013-03-08 22:07:00,51.3,44.7,30.44,WNW,292,0.0,0.0,78,0.00,,,0.08,WUHU21623XXSP,2013-03-09 03:07:00,
2013-03-08 22:12:00,51.3,44.7,30.44,WNW,292,0.0,0.0,78,0.00,,,0.08,WUHU21623XXSP,2013-03-09 03:12:00,
2013-03-08 22:17:00,51.2,45.0,30.44,WNW,292,0.0,0.0,79,0.00,,,0.08,WUHU21623XXSP,2013-03-09 03:17:00,
2013-03-08 22:22:00,51.0,44.8,30.44,WNW,292,0.0,0.0,79,0.00,,,0.08,WUHU21623XXSP,2013-03-09 03:22:00,
2013-03-08 22:27:00,50.8,44.6,30.44,WNW,292,0.0,0.0,79,0.00,,,0.08,WUHU21623XXSP,2013-03-09 03:27:00,
2013-03-08 22:32:00,50.6,44.4,30.45,WNW,292,0.0,0.0,79,0.00,,,0.08,WUHU21623XXSP,2013-03-09 03:32:00,
2013-03-08 22:37:00,50.6,44.7,30.45,WNW,292,0.0,0.0,80,0.00,,,0.08,WUHU21623XXSP,2013-03-09 03:37:00,
2013-03-08 22:42:00,50.6,44.7,30.45,WNW,292,0.0,0.0,80,0.00,,,0.08,WUHU21623XXSP,2013-03-09 03:42:00,
2013-03-08 22:47:00,50.6,45.0,30.45,WNW,292,0.0,0.0,81,0.00,,,0.08,WUHU21623XXSP,2013-03-09 03:47:00,
2013-03-08 22:52:00,50.6,45.0,30.45,WNW,292,0.0,0.0,81,0.00,,,0.08,WUHU21623XXSP,2013-03-09 03:52:00,
2013-03-08 22:57:00,50.8,45.2,30.46,WNW,292,0.0,0.0,81,0.00,,,0.08,WUHU21623XXSP,2013-03-09 03:57:00,
2013-03-08 23:02:00,50.8,45.2,30.46,NW,315,0.0,0.0,81,0.00,,,0.08,WUHU21623XXSP,2013-03-09 04:02:00,
2013-03-08 23:07:00,51.3,46.0,30.45,NW,315,0.0,0.0,82,0.00,,,0.08,WUHU21623XXSP,2013-03-09 04:07:00,
2013-03-08 23:12:00,51.3,46.0,30.45,NW,315,0.0,0.0,82,0.00,,,0.08,WUHU21623XXSP,2013-03-09 04:12:00,
2013-03-08 23:17:00,51.5,46.5,30.46,NNW,337,0.0,0.0,83,0.00,,,0.08,WUHU21623XXSP,2013-03-09 04:17:00,
2013-03-08 23:22:00,51.7,46.7,30.46,NNE,22,0.0,0.0,83,0.00,,,0.08,WUHU21623XXSP,2013-03-09 04:22:00,
2013-03-08 23:27:00,52.2,47.2,30.46,ESE,112,0.0,0.0,83,0.00,,,0.08,WUHU21623XXSP,2013-03-09 04:27:00,
2013-03-08 23:32:00,52.4,47.7,30.45,East,90,0.0,0.0,84,0.00,,,0.08,WUHU21623XXSP,2013-03-09 04:32:00,
2013-03-08 23:37:00,53.0,48.3,30.45,NE,45,0.0,0.0,84,0.00,,,0.08,WUHU21623XXSP,2013-03-09 04:37:00,
2013-03-08 23:42:00,53.1,48.1,30.45,NE,45,0.0,0.0,83,0.00,,,0.08,WUHU21623XXSP,2013-03-09 04:42:00,
2013-03-08 23:47:00,53.3,48.3,30.45,NE,45,0.0,0.0,83,0.00,,,0.08,WUHU21623XXSP,2013-03-09 04:47:00,
2013-03-08 23:52:00,53.5,48.2,30.45,ESE,112,0.0,0.0,82,0.00,,,0.08,WUHU21623XXSP,2013-03-09 04:52:00,
2013-03-08 23:57:00,53.5,48.2,30.45,ENE,67,0.0,0.0,82,0.00,,,0.08,WUHU21623XXSP,2013-03-09 04:57:00,